createdAt,value
2023-04-19T00:01:28.570Z,9.44
2023-04-19T00:03:58.501Z,9.42
2023-04-19T00:06:30.602Z,9.38
2023-04-19T00:08:59.056Z,9.36
2023-04-19T00:11:28.248Z,9.33
2023-04-19T00:13:56.744Z,9.32
2023-04-19T00:16:25.680Z,9.30
2023-04-19T00:18:54.774Z,9.27
2023-04-19T00:21:23.659Z,9.23
2023-04-19T00:23:55.324Z,9.21
2023-04-19T00:26:23.715Z,9.18
2023-04-19T00:28:52.366Z,9.14
2023-04-19T00:31:21.604Z,9.12
2023-04-19T00:33:50.535Z,9.09
2023-04-19T00:36:19.233Z,9.08
2023-04-19T00:38:49.542Z,9.08
2023-04-19T00:41:19.575Z,9.07
2023-04-19T00:43:48.059Z,9.07
2023-04-19T00:46:17.076Z,9.04
2023-04-19T00:48:46.369Z,9.02
2023-04-19T00:51:15.014Z,8.97
2023-04-19T00:53:43.999Z,8.95
2023-04-19T00:56:13.098Z,8.91
2023-04-19T00:58:43.248Z,8.89
2023-04-19T01:01:12.583Z,8.87
2023-04-19T01:03:41.248Z,8.84
2023-04-19T01:06:10.708Z,8.82
2023-04-19T01:08:39.648Z,8.78
2023-04-19T01:11:08.559Z,8.75
2023-04-19T01:13:36.987Z,8.71
2023-04-19T01:16:08.789Z,8.69
2023-04-19T01:18:37.793Z,8.67
2023-04-19T01:21:07.125Z,8.63
2023-04-19T01:23:39.004Z,8.61
2023-04-19T01:26:08.173Z,8.59
2023-04-19T01:28:36.739Z,8.54
2023-04-19T01:31:05.324Z,8.53
2023-04-19T01:33:33.972Z,8.50
2023-04-19T01:36:02.318Z,8.45
2023-04-19T01:38:30.749Z,8.44
2023-04-19T01:41:00.515Z,8.42
2023-04-19T01:43:28.892Z,8.38
2023-04-19T01:45:58.049Z,8.35
2023-04-19T01:48:27.929Z,8.31
2023-04-19T01:50:56.306Z,8.27
2023-04-19T01:53:25.636Z,8.24
2023-04-19T01:55:54.883Z,8.20
2023-04-19T01:58:24.781Z,8.17
2023-04-19T02:00:53.392Z,8.12
2023-04-19T02:03:22.486Z,8.10
2023-04-19T02:05:50.939Z,8.06
2023-04-19T02:08:19.769Z,8.05
2023-04-19T02:10:48.185Z,8.01
2023-04-19T02:13:16.696Z,7.98
2023-04-19T02:15:46.558Z,7.94
2023-04-19T02:18:15.042Z,7.91
2023-04-19T02:20:43.410Z,7.88
2023-04-19T02:23:11.889Z,7.85
2023-04-19T02:25:40.638Z,7.81
2023-04-19T02:28:09.856Z,7.78
2023-04-19T02:30:38.555Z,7.75
2023-04-19T02:33:08.259Z,7.73
2023-04-19T02:35:36.857Z,7.72
2023-04-19T02:38:05.941Z,7.70
2023-04-19T02:40:34.400Z,7.66
2023-04-19T02:43:02.787Z,7.66
2023-04-19T02:45:31.597Z,7.65
2023-04-19T02:48:00.226Z,7.63
2023-04-19T02:50:30.159Z,7.59
2023-04-19T02:52:59.979Z,7.56
2023-04-19T02:55:28.498Z,7.53
2023-04-19T02:57:59.919Z,7.50
2023-04-19T03:00:28.419Z,7.45
2023-04-19T03:02:59.031Z,7.41
2023-04-19T03:05:29.404Z,7.36
2023-04-19T03:07:57.830Z,7.31
2023-04-19T03:10:27.218Z,7.27
2023-04-19T03:12:56.044Z,7.24
2023-04-19T03:15:25.129Z,7.19
2023-04-19T03:17:59.368Z,7.15
2023-04-19T03:20:29.303Z,7.11
2023-04-19T03:22:57.734Z,7.06
2023-04-19T03:25:26.391Z,7.03
2023-04-19T03:27:54.775Z,6.98
2023-04-19T03:30:23.492Z,6.93
2023-04-19T03:32:53.246Z,6.91
2023-04-19T03:35:23.325Z,6.87
2023-04-19T03:37:53.224Z,6.83
2023-04-19T03:40:22.615Z,6.80
2023-04-19T03:42:51.221Z,6.76
2023-04-19T03:45:20.059Z,6.73
2023-04-19T03:47:48.584Z,6.72
2023-04-19T03:50:17.149Z,6.68
2023-04-19T03:52:45.742Z,6.64
2023-04-19T03:55:15.651Z,6.61
2023-04-19T03:57:44.066Z,6.58
2023-04-19T04:00:14.497Z,6.56
2023-04-19T04:02:43.254Z,6.54
2023-04-19T04:05:11.954Z,6.49
2023-04-19T04:07:40.441Z,6.46
2023-04-19T04:10:10.479Z,6.42
2023-04-19T04:12:40.336Z,6.39
2023-04-19T04:15:10.491Z,6.37
2023-04-19T04:17:38.891Z,6.33
2023-04-19T04:20:09.827Z,6.27
2023-04-19T04:22:43.346Z,6.25
2023-04-19T04:25:12.599Z,6.23
2023-04-19T04:27:43.241Z,6.21
2023-04-19T04:30:12.699Z,6.20
2023-04-19T04:32:41.209Z,6.18
2023-04-19T04:35:11.808Z,6.17
2023-04-19T04:37:40.293Z,6.14
2023-04-19T04:40:10.169Z,6.13
2023-04-19T04:42:39.156Z,6.11
2023-04-19T04:45:11.040Z,6.12
2023-04-19T04:47:39.822Z,6.13
2023-04-19T04:50:10.594Z,6.15
2023-04-19T04:52:39.020Z,6.15
2023-04-19T04:55:09.123Z,6.17
2023-04-19T04:57:37.859Z,6.19
2023-04-19T05:00:09.982Z,6.22
2023-04-19T05:02:38.509Z,6.24
2023-04-19T05:05:11.576Z,6.26
2023-04-19T05:07:40.311Z,6.30
2023-04-19T05:10:10.301Z,6.36
2023-04-19T05:12:39.073Z,6.40
2023-04-19T05:15:11.993Z,6.45
2023-04-19T05:17:40.413Z,6.50
2023-04-19T05:20:11.408Z,6.57
2023-04-19T05:22:40.086Z,6.63
2023-04-19T05:25:11.299Z,6.70
2023-04-19T05:27:39.658Z,6.78
2023-04-19T05:30:10.305Z,6.86
2023-04-19T05:32:39.617Z,6.90
2023-04-19T05:35:09.690Z,6.99
2023-04-19T05:37:38.298Z,7.07
2023-04-19T05:40:10.194Z,7.13
2023-04-19T05:42:39.898Z,7.22
2023-04-19T05:45:11.687Z,7.29
2023-04-19T05:47:40.094Z,7.37
2023-04-19T05:50:09.495Z,7.42
2023-04-19T05:52:37.956Z,7.49
2023-04-19T05:55:07.464Z,7.56
2023-04-19T05:57:36.030Z,7.64
2023-04-19T06:00:06.284Z,7.71
2023-04-19T06:02:36.312Z,7.81
2023-04-19T06:05:09.949Z,7.91
2023-04-19T06:07:43.416Z,7.99
2023-04-19T06:10:19.591Z,8.06
2023-04-19T06:12:48.143Z,8.17
2023-04-19T06:15:16.588Z,8.26
2023-04-19T06:17:46.434Z,8.34
2023-04-19T06:20:15.060Z,8.42
2023-04-19T06:22:45.628Z,8.52
2023-04-19T06:25:14.142Z,8.62
2023-04-19T06:27:42.706Z,8.74
2023-04-19T06:30:11.784Z,8.83
2023-04-19T06:32:40.201Z,8.91
2023-04-19T06:35:11.017Z,8.99
2023-04-19T06:37:39.445Z,9.09
2023-04-19T06:40:09.767Z,9.21
2023-04-19T06:42:38.171Z,9.27
2023-04-19T06:45:08.589Z,9.36
2023-04-19T06:47:37.047Z,9.44
2023-04-19T06:50:06.744Z,9.55
2023-04-19T06:52:36.550Z,9.68
2023-04-19T06:55:05.386Z,9.77
2023-04-19T06:57:33.809Z,9.88
2023-04-19T07:00:02.393Z,10.02
2023-04-19T07:02:30.890Z,10.14
2023-04-19T07:04:59.429Z,10.25
2023-04-19T07:07:27.909Z,10.35
2023-04-19T07:10:00.045Z,10.46
2023-04-19T07:12:28.742Z,10.54
2023-04-19T07:14:57.412Z,10.66
2023-04-19T07:17:27.509Z,10.75
2023-04-19T07:19:56.307Z,10.82
2023-04-19T07:22:25.038Z,10.95
2023-04-19T07:24:54.014Z,11.05
2023-04-19T07:27:25.156Z,11.14
2023-04-19T07:29:54.080Z,11.21
2023-04-19T07:32:23.245Z,11.32
2023-04-19T07:34:53.035Z,11.42
2023-04-19T07:37:22.360Z,11.53
2023-04-19T07:39:50.999Z,11.65
2023-04-19T07:42:19.867Z,11.75
2023-04-19T07:44:49.857Z,11.87
2023-04-19T07:47:18.310Z,12.01
2023-04-19T07:49:47.046Z,12.13
2023-04-19T07:52:15.575Z,12.28
2023-04-19T07:54:48.825Z,12.42
2023-04-19T07:57:17.455Z,12.53
2023-04-19T07:59:45.924Z,12.60
2023-04-19T08:02:16.502Z,12.68
2023-04-19T08:04:48.801Z,12.81
2023-04-19T08:07:17.268Z,12.85
2023-04-19T08:09:47.771Z,12.91
2023-04-19T08:12:32.672Z,13.03
2023-04-19T08:15:15.482Z,13.11
2023-04-19T08:17:53.441Z,13.15
2023-04-19T08:20:23.483Z,13.22
2023-04-19T08:22:52.199Z,13.26
2023-04-19T08:25:21.410Z,13.29
2023-04-19T08:27:54.995Z,13.35
2023-04-19T08:30:23.621Z,13.47
2023-04-19T08:32:56.344Z,13.57
2023-04-19T08:35:26.851Z,13.62
2023-04-19T08:37:55.485Z,13.71
2023-04-19T08:40:24.709Z,13.80
2023-04-19T08:42:53.887Z,13.87
2023-04-19T08:45:28.345Z,13.93
2023-04-19T08:48:02.101Z,14.03
2023-04-19T08:50:38.693Z,14.11
2023-04-19T08:53:23.992Z,14.21
2023-04-19T08:58:45.805Z,14.47
2023-04-19T09:06:27.272Z,14.65
2023-04-19T09:09:33.406Z,14.74
2023-04-19T09:12:04.182Z,14.78
2023-04-19T09:14:32.660Z,14.82
2023-04-19T09:17:17.694Z,14.86
2023-04-19T09:19:53.695Z,14.94
2023-04-19T09:22:22.668Z,15.11
2023-04-19T09:27:29.833Z,15.35
2023-04-19T09:29:59.882Z,15.45
2023-04-19T09:32:29.250Z,15.50
2023-04-19T09:35:01.748Z,15.59
2023-04-19T09:37:51.519Z,15.67
2023-04-19T09:40:28.012Z,15.71
2023-04-19T09:43:08.719Z,15.80
2023-04-19T09:45:47.612Z,15.95
2023-04-19T09:48:16.018Z,16.00
2023-04-19T09:51:03.156Z,16.03
2023-04-19T09:53:35.447Z,16.08
2023-04-19T09:56:06.348Z,16.08
2023-04-19T09:58:46.914Z,16.05
2023-04-19T10:01:22.164Z,16.05
2023-04-19T10:03:52.870Z,16.11
2023-04-19T10:08:57.361Z,16.33
2023-04-19T10:11:32.998Z,16.42
2023-04-19T10:14:05.591Z,16.44
2023-04-19T10:16:35.627Z,16.44
2023-04-19T10:19:09.330Z,16.48
2023-04-19T10:21:41.278Z,16.59
2023-04-19T10:24:10.680Z,16.71
2023-04-19T10:27:11.348Z,16.91
2023-04-19T10:30:05.072Z,16.99
2023-04-19T10:32:41.076Z,16.99
2023-04-19T10:35:11.629Z,16.98
2023-04-19T10:37:43.161Z,17.00
2023-04-19T10:40:12.823Z,17.01
2023-04-19T10:43:17.853Z,17.04
2023-04-19T10:45:46.598Z,17.05
2023-04-19T10:48:44.138Z,17.07
2023-04-19T10:51:19.394Z,17.24
2023-04-19T10:53:58.708Z,17.34
2023-04-19T10:57:04.467Z,17.32
2023-04-19T10:59:33.863Z,17.31
2023-04-19T11:02:04.772Z,17.40
2023-04-19T11:05:02.490Z,17.52
2023-04-19T11:07:39.035Z,17.52
2023-04-19T11:10:11.757Z,17.44
2023-04-19T11:12:46.117Z,17.49
2023-04-19T11:15:14.607Z,17.49
2023-04-19T11:17:43.266Z,17.54
2023-04-19T11:20:14.607Z,17.52
2023-04-19T11:22:44.424Z,17.49
2023-04-19T11:25:18.322Z,17.54
2023-04-19T11:27:49.240Z,17.63
2023-04-19T11:30:22.508Z,17.69
2023-04-19T11:32:53.415Z,17.76
2023-04-19T11:35:24.753Z,17.80
2023-04-19T11:37:54.516Z,17.84
2023-04-19T11:40:27.625Z,17.90
2023-04-19T11:43:00.271Z,18.04
2023-04-19T11:45:34.533Z,18.11
2023-04-19T11:48:06.246Z,18.27
2023-04-19T11:50:37.916Z,18.52
2023-04-19T11:53:16.535Z,18.74
2023-04-19T11:55:47.962Z,19.05
2023-04-19T11:58:31.137Z,19.38
2023-04-19T12:01:06.332Z,19.75
2023-04-19T12:03:35.585Z,20.10
2023-04-19T12:06:09.060Z,20.40
2023-04-19T12:08:40.192Z,20.63
2023-04-19T12:11:10.087Z,20.80
2023-04-19T12:13:40.742Z,20.93
2023-04-19T12:16:09.995Z,21.11
2023-04-19T12:18:48.405Z,21.38
2023-04-19T12:21:28.480Z,21.72
2023-04-19T12:23:58.917Z,22.03
2023-04-19T12:26:29.963Z,22.36
2023-04-19T12:29:00.390Z,22.55
2023-04-19T12:31:29.270Z,22.84
2023-04-19T12:33:57.804Z,23.18
2023-04-19T12:36:26.683Z,23.34
2023-04-19T12:38:55.034Z,23.61
2023-04-19T12:41:23.533Z,23.88
2023-04-19T12:43:53.262Z,24.08
2023-04-19T12:46:22.459Z,24.18
2023-04-19T12:48:51.061Z,24.37
2023-04-19T12:51:19.998Z,24.59
2023-04-19T12:53:50.232Z,24.61
2023-04-19T12:56:19.863Z,24.95
2023-04-19T12:58:48.566Z,24.95
2023-04-19T13:01:18.716Z,25.08
2023-04-19T13:03:47.654Z,25.44
2023-04-19T13:06:17.491Z,25.78
2023-04-19T13:08:47.702Z,25.95
2023-04-19T13:11:23.101Z,25.81
2023-04-19T13:13:53.635Z,26.10
2023-04-19T13:16:23.762Z,26.55
2023-04-19T13:18:55.012Z,26.96
2023-04-19T13:21:24.364Z,27.20
2023-04-19T13:23:53.303Z,27.39
2023-04-19T13:26:22.396Z,27.55
2023-04-19T13:28:51.221Z,27.77
2023-04-19T13:31:20.060Z,28.00
2023-04-19T13:33:49.999Z,28.24
2023-04-19T13:36:18.439Z,28.45
2023-04-19T13:38:47.865Z,28.37
2023-04-19T13:41:16.774Z,28.46
2023-04-19T13:43:45.545Z,28.85
2023-04-19T13:46:14.061Z,28.76
2023-04-19T13:48:42.463Z,29.04
2023-04-19T13:51:12.549Z,29.45
2023-04-19T13:53:41.245Z,29.57
2023-04-19T13:56:10.264Z,29.58
2023-04-19T13:58:39.550Z,29.83
2023-04-19T14:01:08.265Z,30.36
2023-04-19T14:03:36.897Z,30.81
2023-04-19T14:06:06.149Z,30.86
2023-04-19T14:08:36.060Z,31.03
2023-04-19T14:11:04.823Z,30.99
2023-04-19T14:13:33.538Z,31.10
2023-04-19T14:16:01.965Z,31.13
2023-04-19T14:18:30.712Z,30.80
2023-04-19T14:20:59.226Z,30.66
2023-04-19T14:23:28.644Z,31.21
2023-04-19T14:25:58.388Z,31.57
2023-04-19T14:28:27.533Z,31.66
2023-04-19T14:30:56.158Z,30.71
2023-04-19T14:33:25.193Z,30.43
2023-04-19T14:35:54.115Z,30.75
2023-04-19T14:38:22.681Z,31.06
2023-04-19T14:40:51.335Z,31.34
2023-04-19T14:43:21.461Z,31.51
2023-04-19T14:45:50.693Z,31.34
2023-04-19T14:48:21.941Z,31.52
2023-04-19T14:50:51.334Z,31.68
2023-04-19T14:53:20.077Z,32.09
2023-04-19T14:55:48.433Z,32.69
2023-04-19T14:58:17.249Z,33.10
2023-04-19T15:00:47.231Z,33.05
2023-04-19T15:03:16.164Z,32.20
2023-04-19T15:05:44.775Z,32.11
2023-04-19T15:08:29.214Z,32.51
2023-04-19T15:10:58.900Z,32.81
2023-04-19T15:13:29.842Z,33.11
2023-04-19T15:16:01.824Z,32.72
2023-04-19T15:18:31.681Z,32.25
2023-04-19T15:21:00.084Z,32.16
2023-04-19T15:23:28.630Z,32.55
2023-04-19T15:25:57.554Z,32.94
2023-04-19T15:28:26.400Z,32.97
2023-04-19T15:31:02.593Z,33.44
2023-04-19T15:33:31.197Z,33.49
2023-04-19T15:36:00.817Z,33.53
2023-04-19T15:38:32.384Z,33.22
2023-04-19T15:41:02.177Z,33.22
2023-04-19T15:43:31.012Z,33.22
2023-04-19T15:46:01.896Z,33.02
2023-04-19T15:48:30.654Z,33.30
2023-04-19T15:50:59.123Z,33.29
2023-04-19T15:53:27.744Z,33.08
2023-04-19T15:55:58.622Z,33.13
2023-04-19T15:58:27.729Z,33.18
2023-04-19T16:00:56.392Z,33.00
2023-04-19T16:03:26.764Z,33.02
2023-04-19T16:05:57.107Z,32.85
2023-04-19T16:08:26.001Z,32.91
2023-04-19T16:10:54.419Z,33.02
2023-04-19T16:13:23.385Z,33.03
2023-04-19T16:15:53.021Z,33.09
2023-04-19T16:18:22.743Z,32.71
2023-04-19T16:20:55.437Z,32.29
2023-04-19T16:23:25.672Z,32.46
2023-04-19T16:25:56.587Z,32.75
2023-04-19T16:28:26.351Z,32.68
2023-04-19T16:30:55.006Z,32.29
2023-04-19T16:33:23.857Z,31.95
2023-04-19T16:35:53.748Z,32.09
2023-04-19T16:38:22.428Z,32.26
2023-04-19T16:40:51.415Z,32.04
2023-04-19T16:43:21.027Z,32.10
2023-04-19T16:45:49.614Z,31.98
2023-04-19T16:48:18.802Z,31.78
2023-04-19T16:50:47.761Z,31.73
2023-04-19T16:53:17.837Z,31.89
2023-04-19T16:55:46.281Z,32.01
2023-04-19T16:58:15.079Z,31.90
2023-04-19T17:00:43.544Z,31.73
2023-04-19T17:03:12.190Z,31.49
2023-04-19T17:05:40.773Z,31.50
2023-04-19T17:08:11.099Z,31.56
2023-04-19T17:10:40.987Z,31.56
2023-04-19T17:13:09.412Z,31.21
2023-04-19T17:15:39.566Z,31.13
2023-04-19T17:18:08.226Z,30.92
2023-04-19T17:20:36.840Z,30.45
2023-04-19T17:23:05.326Z,30.07
2023-04-19T17:25:33.827Z,29.84
2023-04-19T17:28:03.712Z,29.82
2023-04-19T17:30:32.172Z,29.54
2023-04-19T17:33:00.826Z,29.16
2023-04-19T17:35:29.431Z,28.88
2023-04-19T17:37:57.983Z,28.54
2023-04-19T17:40:29.585Z,28.21
2023-04-19T17:42:58.502Z,27.78
2023-04-19T17:45:28.621Z,27.44
2023-04-19T17:47:57.724Z,27.00
2023-04-19T17:50:26.680Z,26.56
2023-04-19T17:52:56.178Z,26.24
2023-04-19T17:55:25.607Z,25.71
2023-04-19T17:57:54.119Z,24.77
2023-04-19T18:00:23.200Z,23.56
2023-04-19T18:02:53.942Z,22.47
2023-04-19T18:05:22.936Z,21.59
2023-04-19T18:07:51.427Z,20.83
2023-04-19T18:10:20.214Z,20.08
2023-04-19T18:12:48.662Z,19.30
2023-04-19T18:15:17.245Z,18.59
2023-04-19T18:17:46.059Z,17.93
2023-04-19T18:20:16.685Z,17.36
2023-04-19T18:22:45.602Z,16.91
2023-04-19T18:25:14.087Z,16.57
2023-04-19T18:27:42.627Z,16.20
2023-04-19T18:30:12.070Z,15.86
2023-04-19T18:32:40.508Z,15.53
2023-04-19T18:35:10.190Z,15.22
2023-04-19T18:37:40.269Z,14.93
2023-04-19T18:40:10.497Z,14.65
2023-04-19T18:42:39.044Z,14.38
2023-04-19T18:45:09.558Z,14.14
2023-04-19T18:47:37.993Z,13.92
2023-04-19T18:50:08.801Z,13.69
2023-04-19T18:52:37.556Z,13.50
2023-04-19T18:55:09.141Z,13.31
2023-04-19T18:57:38.857Z,13.14
2023-04-19T19:00:11.230Z,12.98
2023-04-19T19:02:41.228Z,12.84
2023-04-19T19:05:13.739Z,12.70
2023-04-19T19:07:42.649Z,12.57
2023-04-19T19:12:44.268Z,12.32
2023-04-19T19:15:12.801Z,12.20
2023-04-19T19:17:41.267Z,12.09
2023-04-19T19:20:11.134Z,11.98
2023-04-19T19:22:40.240Z,11.86
2023-04-19T19:25:09.671Z,11.75
2023-04-19T19:27:40.081Z,11.65
2023-04-19T19:30:10.125Z,11.55
2023-04-19T19:32:39.979Z,11.47
2023-04-19T19:35:09.714Z,11.38
2023-04-19T19:37:38.972Z,11.30
2023-04-19T19:40:11.308Z,11.21
2023-04-19T19:42:41.182Z,11.13
2023-04-19T19:45:11.304Z,11.05
2023-04-19T19:47:45.408Z,10.98
2023-04-19T19:52:46.994Z,10.83
2023-04-19T19:55:15.520Z,10.75
2023-04-19T20:00:41.945Z,10.61
2023-04-19T20:03:06.526Z,10.53
2023-04-19T20:05:40.155Z,10.45
2023-04-19T20:08:11.955Z,10.37
2023-04-19T20:10:43.606Z,10.30
2023-04-19T20:13:14.066Z,10.21
2023-04-19T20:15:45.464Z,10.15
2023-04-19T20:18:14.665Z,10.09
2023-04-19T20:20:44.654Z,10.05
2023-04-19T20:23:16.822Z,10.00
2023-04-19T20:25:45.222Z,9.91
2023-04-19T20:28:15.258Z,9.86
2023-04-19T20:30:44.370Z,9.79
2023-04-19T20:33:12.811Z,9.75
2023-04-19T20:35:42.585Z,9.68
2023-04-19T20:38:11.056Z,9.63
2023-04-19T20:40:39.441Z,9.58
2023-04-19T20:43:08.317Z,9.53
2023-04-19T20:45:38.173Z,9.47
2023-04-19T20:48:08.640Z,9.43
2023-04-19T20:50:37.476Z,9.37
2023-04-19T20:53:05.971Z,9.33
2023-04-19T20:55:34.310Z,9.28
2023-04-19T20:58:03.551Z,9.27
2023-04-19T21:00:32.165Z,9.23
2023-04-19T21:03:02.164Z,9.20
2023-04-19T21:05:30.948Z,9.18
2023-04-19T21:07:59.378Z,9.14
2023-04-19T21:10:28.036Z,9.11
2023-04-19T21:12:56.481Z,9.10
2023-04-19T21:15:25.128Z,9.08
2023-04-19T21:17:53.801Z,9.06
2023-04-19T21:20:23.573Z,9.06
2023-04-19T21:22:52.116Z,9.04
2023-04-19T21:25:20.847Z,9.01
2023-04-19T21:27:49.288Z,8.97
2023-04-19T21:30:17.730Z,8.95
2023-04-19T21:32:46.199Z,8.94
2023-04-19T21:35:15.385Z,8.92
2023-04-19T21:37:45.743Z,8.87
2023-04-19T21:40:14.767Z,8.84
2023-04-19T21:42:43.163Z,8.81
2023-04-19T21:45:12.739Z,8.79
2023-04-19T21:47:41.415Z,8.76
2023-04-19T21:50:11.477Z,8.72
2023-04-19T21:52:39.900Z,8.71
2023-04-19T21:55:11.693Z,8.68
2023-04-19T21:57:40.416Z,8.64
2023-04-19T22:00:10.828Z,8.60
2023-04-19T22:02:39.971Z,8.58
2023-04-19T22:05:09.117Z,8.58
2023-04-19T22:07:38.649Z,8.62
2023-04-19T22:10:11.974Z,8.67
2023-04-19T22:12:51.301Z,8.70
2023-04-19T22:15:25.620Z,8.72
2023-04-19T22:17:54.068Z,8.73
2023-04-19T22:20:23.906Z,8.70
2023-04-19T22:22:52.708Z,8.63
2023-04-19T22:25:22.995Z,8.56
2023-04-19T22:27:51.606Z,8.52
2023-04-19T22:30:20.355Z,8.49
2023-04-19T22:32:49.246Z,8.44
2023-04-19T22:35:18.252Z,8.42
2023-04-19T22:37:47.534Z,8.41
2023-04-19T22:40:16.019Z,8.42
2023-04-19T22:42:45.767Z,8.46
2023-04-19T22:45:14.272Z,8.56
2023-04-19T22:47:42.655Z,8.65
2023-04-19T22:50:12.493Z,8.76
2023-04-19T22:52:41.028Z,8.85
2023-04-19T22:55:10.558Z,8.93
2023-04-19T22:57:38.944Z,9.00
2023-04-19T23:00:11.629Z,9.06
2023-04-19T23:02:40.466Z,9.13
2023-04-19T23:05:10.197Z,9.21
2023-04-19T23:07:40.095Z,9.30
2023-04-19T23:10:11.114Z,9.38
2023-04-19T23:12:40.094Z,9.43
2023-04-19T23:15:13.531Z,9.49
2023-04-19T23:17:42.016Z,9.51
2023-04-19T23:20:12.426Z,9.55
2023-04-19T23:22:41.193Z,9.58
2023-04-19T23:25:11.085Z,9.59
2023-04-19T23:27:39.553Z,9.62
2023-04-19T23:30:11.216Z,9.67
2023-04-19T23:32:39.685Z,9.72
2023-04-19T23:35:09.070Z,9.78
2023-04-19T23:37:38.097Z,9.81
2023-04-19T23:40:08.339Z,9.81
2023-04-19T23:42:38.316Z,9.78
2023-04-19T23:45:08.984Z,9.77
2023-04-19T23:47:38.716Z,9.77
2023-04-19T23:50:08.806Z,9.79
2023-04-19T23:52:37.209Z,9.80
2023-04-19T23:55:06.872Z,9.82
2023-04-19T23:57:35.732Z,9.83
